sensor_id;sensor_type;location;lat;lon;timestamp;temperature;humidity
6822;DHT22;3449;48.728;8.968;2024-03-29T00:01:21;5.50;99.90
6822;DHT22;3449;48.728;8.968;2024-03-29T00:03:47;5.60;99.90
6822;DHT22;3449;48.728;8.968;2024-03-29T00:06:13;5.60;99.90
6822;DHT22;3449;48.728;8.968;2024-03-29T00:08:39;5.70;99.90
6822;DHT22;3449;48.728;8.968;2024-03-29T00:11:05;5.70;99.90
6822;DHT22;3449;48.728;8.968;2024-03-29T00:13:32;5.70;99.90
6822;DHT22;3449;48.728;8.968;2024-03-29T00:15:58;5.70;99.90
6822;DHT22;3449;48.728;8.968;2024-03-29T00:18:24;5.70;99.90
6822;DHT22;3449;48.728;8.968;2024-03-29T00:20:50;5.70;99.90
6822;DHT22;3449;48.728;8.968;2024-03-29T00:23:16;5.70;99.90
6822;DHT22;3449;48.728;8.968;2024-03-29T00:25:41;5.70;99.90
6822;DHT22;3449;48.728;8.968;2024-03-29T00:28:07;5.60;99.90
6822;DHT22;3449;48.728;8.968;2024-03-29T00:30:35;5.50;99.90
6822;DHT22;3449;48.728;8.968;2024-03-29T00:33:00;5.50;99.90
6822;DHT22;3449;48.728;8.968;2024-03-29T00:35:26;5.50;99.90
6822;DHT22;3449;48.728;8.968;2024-03-29T00:37:52;5.50;99.90
6822;DHT22;3449;48.728;8.968;2024-03-29T00:40:18;5.40;99.90
6822;DHT22;3449;48.728;8.968;2024-03-29T00:42:44;5.40;99.90
6822;DHT22;3449;48.728;8.968;2024-03-29T00:45:10;5.40;99.90
6822;DHT22;3449;48.728;8.968;2024-03-29T00:47:37;5.40;99.90
6822;DHT22;3449;48.728;8.968;2024-03-29T00:50:04;5.40;99.90
6822;DHT22;3449;48.728;8.968;2024-03-29T00:52:30;5.50;99.90
6822;DHT22;3449;48.728;8.968;2024-03-29T00:54:56;5.50;99.90
6822;DHT22;3449;48.728;8.968;2024-03-29T00:57:21;5.50;99.90
6822;DHT22;3449;48.728;8.968;2024-03-29T00:59:47;5.50;99.90
6822;DHT22;3449;48.728;8.968;2024-03-29T01:02:13;5.50;99.90
6822;DHT22;3449;48.728;8.968;2024-03-29T01:04:40;5.60;99.90
6822;DHT22;3449;48.728;8.968;2024-03-29T01:07:06;5.60;99.90
6822;DHT22;3449;48.728;8.968;2024-03-29T01:09:32;5.60;99.90
6822;DHT22;3449;48.728;8.968;2024-03-29T01:11:58;5.60;99.90
6822;DHT22;3449;48.728;8.968;2024-03-29T01:14:24;5.70;99.90
6822;DHT22;3449;48.728;8.968;2024-03-29T01:16:50;5.70;99.90
6822;DHT22;3449;48.728;8.968;2024-03-29T01:19:16;5.80;99.90
6822;DHT22;3449;48.728;8.968;2024-03-29T01:21:43;5.60;99.90
6822;DHT22;3449;48.728;8.968;2024-03-29T01:24:09;5.60;99.90
6822;DHT22;3449;48.728;8.968;2024-03-29T01:26:35;5.50;99.90
6822;DHT22;3449;48.728;8.968;2024-03-29T01:29:01;5.50;99.90
6822;DHT22;3449;48.728;8.968;2024-03-29T01:31:27;5.50;99.90
6822;DHT22;3449;48.728;8.968;2024-03-29T01:33:53;5.50;99.90
6822;DHT22;3449;48.728;8.968;2024-03-29T01:36:19;5.50;99.90
6822;DHT22;3449;48.728;8.968;2024-03-29T01:38:46;5.40;99.90
6822;DHT22;3449;48.728;8.968;2024-03-29T01:41:12;5.40;99.90
6822;DHT22;3449;48.728;8.968;2024-03-29T01:43:38;5.40;99.90
6822;DHT22;3449;48.728;8.968;2024-03-29T01:46:05;5.40;99.90
6822;DHT22;3449;48.728;8.968;2024-03-29T01:48:33;5.40;99.90
6822;DHT22;3449;48.728;8.968;2024-03-29T01:51:01;5.40;99.90
6822;DHT22;3449;48.728;8.968;2024-03-29T01:53:29;5.40;99.90
6822;DHT22;3449;48.728;8.968;2024-03-29T01:55:58;5.40;99.90
6822;DHT22;3449;48.728;8.968;2024-03-29T01:58:26;5.40;99.90
6822;DHT22;3449;48.728;8.968;2024-03-29T02:00:54;5.40;99.90
6822;DHT22;3449;48.728;8.968;2024-03-29T02:03:21;5.40;99.90
6822;DHT22;3449;48.728;8.968;2024-03-29T02:05:49;5.40;99.90
6822;DHT22;3449;48.728;8.968;2024-03-29T02:08:16;5.40;99.90
6822;DHT22;3449;48.728;8.968;2024-03-29T02:10:44;5.40;99.90
6822;DHT22;3449;48.728;8.968;2024-03-29T02:13:13;5.40;99.90
6822;DHT22;3449;48.728;8.968;2024-03-29T02:15:40;5.40;99.90
6822;DHT22;3449;48.728;8.968;2024-03-29T02:18:07;5.50;99.90
6822;DHT22;3449;48.728;8.968;2024-03-29T02:20:34;5.50;99.90
6822;DHT22;3449;48.728;8.968;2024-03-29T02:23:07;5.50;99.90
6822;DHT22;3449;48.728;8.968;2024-03-29T02:25:37;5.60;99.90
6822;DHT22;3449;48.728;8.968;2024-03-29T02:28:05;5.50;99.90
6822;DHT22;3449;48.728;8.968;2024-03-29T02:30:31;5.50;99.90
6822;DHT22;3449;48.728;8.968;2024-03-29T02:32:58;5.50;99.90
6822;DHT22;3449;48.728;8.968;2024-03-29T02:35:26;5.40;99.90
6822;DHT22;3449;48.728;8.968;2024-03-29T02:37:53;5.30;99.90
6822;DHT22;3449;48.728;8.968;2024-03-29T02:40:20;5.30;99.90
6822;DHT22;3449;48.728;8.968;2024-03-29T02:42:49;5.30;99.90
6822;DHT22;3449;48.728;8.968;2024-03-29T02:45:16;5.20;99.90
6822;DHT22;3449;48.728;8.968;2024-03-29T02:47:43;5.30;99.90
6822;DHT22;3449;48.728;8.968;2024-03-29T02:50:10;5.20;99.90
6822;DHT22;3449;48.728;8.968;2024-03-29T02:52:37;5.20;99.90
6822;DHT22;3449;48.728;8.968;2024-03-29T02:55:03;5.20;99.90
6822;DHT22;3449;48.728;8.968;2024-03-29T02:57:30;5.20;99.90
6822;DHT22;3449;48.728;8.968;2024-03-29T02:59:58;5.10;99.90
6822;DHT22;3449;48.728;8.968;2024-03-29T03:02:25;5.10;99.90
6822;DHT22;3449;48.728;8.968;2024-03-29T03:04:50;5.10;99.90
6822;DHT22;3449;48.728;8.968;2024-03-29T03:07:17;5.00;99.90
6822;DHT22;3449;48.728;8.968;2024-03-29T03:10:01;5.00;99.90
6822;DHT22;3449;48.728;8.968;2024-03-29T03:12:46;5.00;99.90
6822;DHT22;3449;48.728;8.968;2024-03-29T03:15:14;5.10;99.90
6822;DHT22;3449;48.728;8.968;2024-03-29T03:17:41;5.10;99.90
6822;DHT22;3449;48.728;8.968;2024-03-29T03:20:07;5.10;99.90
6822;DHT22;3449;48.728;8.968;2024-03-29T03:22:35;5.20;99.90
6822;DHT22;3449;48.728;8.968;2024-03-29T03:25:00;5.30;99.90
6822;DHT22;3449;48.728;8.968;2024-03-29T03:27:27;5.40;99.90
6822;DHT22;3449;48.728;8.968;2024-03-29T03:29:53;5.30;99.90
6822;DHT22;3449;48.728;8.968;2024-03-29T03:32:21;5.40;99.90
6822;DHT22;3449;48.728;8.968;2024-03-29T03:34:47;5.40;99.90
6822;DHT22;3449;48.728;8.968;2024-03-29T03:37:14;5.50;99.90
6822;DHT22;3449;48.728;8.968;2024-03-29T03:39:40;5.50;99.90
6822;DHT22;3449;48.728;8.968;2024-03-29T03:42:06;5.50;99.90
6822;DHT22;3449;48.728;8.968;2024-03-29T03:44:32;5.60;99.90
6822;DHT22;3449;48.728;8.968;2024-03-29T03:46:59;5.60;99.90
6822;DHT22;3449;48.728;8.968;2024-03-29T03:49:26;5.60;99.90
6822;DHT22;3449;48.728;8.968;2024-03-29T03:51:53;5.60;99.90
6822;DHT22;3449;48.728;8.968;2024-03-29T03:54:19;5.60;99.90
6822;DHT22;3449;48.728;8.968;2024-03-29T03:56:46;5.60;99.90
6822;DHT22;3449;48.728;8.968;2024-03-29T03:59:14;5.60;99.90
6822;DHT22;3449;48.728;8.968;2024-03-29T04:01:41;5.70;99.90
6822;DHT22;3449;48.728;8.968;2024-03-29T04:04:07;5.70;99.90
6822;DHT22;3449;48.728;8.968;2024-03-29T04:06:35;5.70;99.90
6822;DHT22;3449;48.728;8.968;2024-03-29T04:09:01;5.70;99.90
6822;DHT22;3449;48.728;8.968;2024-03-29T04:11:28;5.80;99.90
6822;DHT22;3449;48.728;8.968;2024-03-29T04:13:54;5.80;99.90
6822;DHT22;3449;48.728;8.968;2024-03-29T04:16:21;5.90;99.90
6822;DHT22;3449;48.728;8.968;2024-03-29T04:18:47;5.90;99.90
6822;DHT22;3449;48.728;8.968;2024-03-29T04:21:14;5.90;99.90
6822;DHT22;3449;48.728;8.968;2024-03-29T04:23:41;5.90;99.90
6822;DHT22;3449;48.728;8.968;2024-03-29T04:26:08;5.90;99.90
6822;DHT22;3449;48.728;8.968;2024-03-29T04:28:33;6.00;99.90
6822;DHT22;3449;48.728;8.968;2024-03-29T04:31:00;6.10;99.90
6822;DHT22;3449;48.728;8.968;2024-03-29T04:33:27;6.10;99.90
6822;DHT22;3449;48.728;8.968;2024-03-29T04:35:55;6.10;99.90
6822;DHT22;3449;48.728;8.968;2024-03-29T04:38:21;6.00;99.90
6822;DHT22;3449;48.728;8.968;2024-03-29T04:40:51;5.80;99.90
6822;DHT22;3449;48.728;8.968;2024-03-29T04:43:18;5.70;99.90
6822;DHT22;3449;48.728;8.968;2024-03-29T04:45:45;5.70;99.90
6822;DHT22;3449;48.728;8.968;2024-03-29T04:48:12;5.70;99.90
6822;DHT22;3449;48.728;8.968;2024-03-29T04:50:39;5.80;99.90
6822;DHT22;3449;48.728;8.968;2024-03-29T04:53:06;5.80;99.90
6822;DHT22;3449;48.728;8.968;2024-03-29T04:55:33;5.90;99.90
6822;DHT22;3449;48.728;8.968;2024-03-29T04:58:02;5.90;99.90
6822;DHT22;3449;48.728;8.968;2024-03-29T05:00:29;5.90;99.90
6822;DHT22;3449;48.728;8.968;2024-03-29T05:02:55;5.90;99.90
6822;DHT22;3449;48.728;8.968;2024-03-29T05:05:22;5.80;99.90
6822;DHT22;3449;48.728;8.968;2024-03-29T05:07:49;5.70;99.90
6822;DHT22;3449;48.728;8.968;2024-03-29T05:10:16;5.70;99.90
6822;DHT22;3449;48.728;8.968;2024-03-29T05:12:44;5.60;99.90
6822;DHT22;3449;48.728;8.968;2024-03-29T05:15:12;5.60;99.90
6822;DHT22;3449;48.728;8.968;2024-03-29T05:17:39;5.60;99.90
6822;DHT22;3449;48.728;8.968;2024-03-29T05:20:07;5.60;99.90
6822;DHT22;3449;48.728;8.968;2024-03-29T05:22:35;5.50;99.90
6822;DHT22;3449;48.728;8.968;2024-03-29T05:25:02;5.60;99.90
6822;DHT22;3449;48.728;8.968;2024-03-29T05:27:29;5.70;99.90
6822;DHT22;3449;48.728;8.968;2024-03-29T05:29:56;5.70;99.90
6822;DHT22;3449;48.728;8.968;2024-03-29T05:32:24;5.70;99.90
6822;DHT22;3449;48.728;8.968;2024-03-29T05:34:51;5.70;99.90
6822;DHT22;3449;48.728;8.968;2024-03-29T05:37:18;5.70;99.90
6822;DHT22;3449;48.728;8.968;2024-03-29T05:39:45;5.70;99.90
6822;DHT22;3449;48.728;8.968;2024-03-29T05:42:12;5.70;99.90
6822;DHT22;3449;48.728;8.968;2024-03-29T05:44:39;5.80;99.90
6822;DHT22;3449;48.728;8.968;2024-03-29T05:47:06;5.80;99.90
6822;DHT22;3449;48.728;8.968;2024-03-29T05:49:34;5.80;99.90
6822;DHT22;3449;48.728;8.968;2024-03-29T05:52:01;5.90;99.90
6822;DHT22;3449;48.728;8.968;2024-03-29T05:54:28;5.90;99.90
6822;DHT22;3449;48.728;8.968;2024-03-29T05:56:55;6.00;99.90
6822;DHT22;3449;48.728;8.968;2024-03-29T05:59:22;5.90;99.90
6822;DHT22;3449;48.728;8.968;2024-03-29T06:01:48;5.90;99.90
6822;DHT22;3449;48.728;8.968;2024-03-29T06:04:15;6.00;99.90
6822;DHT22;3449;48.728;8.968;2024-03-29T06:06:46;6.00;99.90
6822;DHT22;3449;48.728;8.968;2024-03-29T06:09:13;6.10;99.90
6822;DHT22;3449;48.728;8.968;2024-03-29T06:11:43;6.10;99.90
6822;DHT22;3449;48.728;8.968;2024-03-29T06:14:10;6.20;99.90
6822;DHT22;3449;48.728;8.968;2024-03-29T06:16:54;6.20;99.90
6822;DHT22;3449;48.728;8.968;2024-03-29T06:19:38;6.20;99.90
6822;DHT22;3449;48.728;8.968;2024-03-29T06:22:07;6.30;99.90
6822;DHT22;3449;48.728;8.968;2024-03-29T06:24:35;6.30;99.90
6822;DHT22;3449;48.728;8.968;2024-03-29T06:27:02;6.40;99.90
6822;DHT22;3449;48.728;8.968;2024-03-29T06:29:28;6.40;99.90
6822;DHT22;3449;48.728;8.968;2024-03-29T06:31:55;6.40;99.90
6822;DHT22;3449;48.728;8.968;2024-03-29T06:34:22;6.60;99.90
6822;DHT22;3449;48.728;8.968;2024-03-29T06:36:49;6.60;99.90
6822;DHT22;3449;48.728;8.968;2024-03-29T06:39:17;6.70;99.90
6822;DHT22;3449;48.728;8.968;2024-03-29T06:41:45;6.70;99.90
6822;DHT22;3449;48.728;8.968;2024-03-29T06:44:12;6.80;99.90
6822;DHT22;3449;48.728;8.968;2024-03-29T06:46:39;6.90;99.90
6822;DHT22;3449;48.728;8.968;2024-03-29T06:49:06;6.90;99.90
6822;DHT22;3449;48.728;8.968;2024-03-29T06:51:32;6.90;99.90
6822;DHT22;3449;48.728;8.968;2024-03-29T06:53:59;7.00;99.90
6822;DHT22;3449;48.728;8.968;2024-03-29T06:56:27;7.10;99.90
6822;DHT22;3449;48.728;8.968;2024-03-29T06:58:55;7.10;99.90
6822;DHT22;3449;48.728;8.968;2024-03-29T07:01:22;7.20;99.90
6822;DHT22;3449;48.728;8.968;2024-03-29T07:03:49;7.30;99.90
6822;DHT22;3449;48.728;8.968;2024-03-29T07:06:16;7.40;99.90
6822;DHT22;3449;48.728;8.968;2024-03-29T07:08:42;7.40;99.90
6822;DHT22;3449;48.728;8.968;2024-03-29T07:11:09;7.30;99.90
6822;DHT22;3449;48.728;8.968;2024-03-29T07:13:38;7.30;99.90
6822;DHT22;3449;48.728;8.968;2024-03-29T07:16:05;7.20;99.90
6822;DHT22;3449;48.728;8.968;2024-03-29T07:18:33;7.20;99.90
6822;DHT22;3449;48.728;8.968;2024-03-29T07:20:59;7.10;99.90
6822;DHT22;3449;48.728;8.968;2024-03-29T07:23:26;7.00;99.90
6822;DHT22;3449;48.728;8.968;2024-03-29T07:26:01;7.00;99.90
6822;DHT22;3449;48.728;8.968;2024-03-29T07:28:29;6.90;99.90
6822;DHT22;3449;48.728;8.968;2024-03-29T07:30:58;6.90;99.90
6822;DHT22;3449;48.728;8.968;2024-03-29T07:33:31;6.80;99.90
6822;DHT22;3449;48.728;8.968;2024-03-29T07:35:58;6.70;99.90
6822;DHT22;3449;48.728;8.968;2024-03-29T07:38:25;6.60;99.90
6822;DHT22;3449;48.728;8.968;2024-03-29T07:40:52;6.60;99.90
6822;DHT22;3449;48.728;8.968;2024-03-29T07:43:21;6.50;99.90
6822;DHT22;3449;48.728;8.968;2024-03-29T07:45:48;6.50;99.90
6822;DHT22;3449;48.728;8.968;2024-03-29T07:48:17;6.40;99.90
6822;DHT22;3449;48.728;8.968;2024-03-29T07:50:45;6.40;99.90
6822;DHT22;3449;48.728;8.968;2024-03-29T07:53:12;6.30;99.90
6822;DHT22;3449;48.728;8.968;2024-03-29T07:55:40;6.30;99.90
6822;DHT22;3449;48.728;8.968;2024-03-29T07:58:07;6.30;99.90
6822;DHT22;3449;48.728;8.968;2024-03-29T08:00:39;6.30;99.90
6822;DHT22;3449;48.728;8.968;2024-03-29T08:03:06;6.20;99.90
6822;DHT22;3449;48.728;8.968;2024-03-29T08:05:34;6.20;99.90
6822;DHT22;3449;48.728;8.968;2024-03-29T08:08:02;6.20;99.90
6822;DHT22;3449;48.728;8.968;2024-03-29T08:10:30;6.30;99.90
6822;DHT22;3449;48.728;8.968;2024-03-29T08:12:56;6.30;99.90
6822;DHT22;3449;48.728;8.968;2024-03-29T08:15:23;6.40;99.90
6822;DHT22;3449;48.728;8.968;2024-03-29T08:17:51;6.40;99.90
6822;DHT22;3449;48.728;8.968;2024-03-29T08:20:17;6.50;99.90
6822;DHT22;3449;48.728;8.968;2024-03-29T08:22:46;6.60;99.90
6822;DHT22;3449;48.728;8.968;2024-03-29T08:25:13;6.60;99.90
6822;DHT22;3449;48.728;8.968;2024-03-29T08:27:40;6.60;99.90
6822;DHT22;3449;48.728;8.968;2024-03-29T08:30:08;6.70;99.90
6822;DHT22;3449;48.728;8.968;2024-03-29T08:32:35;6.70;99.90
6822;DHT22;3449;48.728;8.968;2024-03-29T08:35:01;6.80;99.90
6822;DHT22;3449;48.728;8.968;2024-03-29T08:37:28;6.80;99.90
6822;DHT22;3449;48.728;8.968;2024-03-29T08:39:57;6.80;99.90
6822;DHT22;3449;48.728;8.968;2024-03-29T08:42:24;6.90;99.90
6822;DHT22;3449;48.728;8.968;2024-03-29T08:44:51;6.90;99.90
6822;DHT22;3449;48.728;8.968;2024-03-29T08:47:18;7.00;99.90
6822;DHT22;3449;48.728;8.968;2024-03-29T08:49:44;7.00;99.90
6822;DHT22;3449;48.728;8.968;2024-03-29T08:52:11;7.10;99.90
6822;DHT22;3449;48.728;8.968;2024-03-29T08:54:38;7.20;99.90
6822;DHT22;3449;48.728;8.968;2024-03-29T08:57:06;7.40;99.90
6822;DHT22;3449;48.728;8.968;2024-03-29T08:59:33;7.50;99.90
6822;DHT22;3449;48.728;8.968;2024-03-29T09:02:04;7.60;99.90
6822;DHT22;3449;48.728;8.968;2024-03-29T09:04:32;7.60;99.90
6822;DHT22;3449;48.728;8.968;2024-03-29T09:06:59;7.70;99.90
6822;DHT22;3449;48.728;8.968;2024-03-29T09:09:27;7.80;99.90
6822;DHT22;3449;48.728;8.968;2024-03-29T09:11:54;7.80;99.90
6822;DHT22;3449;48.728;8.968;2024-03-29T09:14:22;7.90;99.90
6822;DHT22;3449;48.728;8.968;2024-03-29T09:16:49;8.00;99.90
6822;DHT22;3449;48.728;8.968;2024-03-29T09:19:16;8.00;99.90
6822;DHT22;3449;48.728;8.968;2024-03-29T09:21:43;8.10;99.90
6822;DHT22;3449;48.728;8.968;2024-03-29T09:24:10;8.20;99.90
6822;DHT22;3449;48.728;8.968;2024-03-29T09:26:37;8.20;99.90
6822;DHT22;3449;48.728;8.968;2024-03-29T09:29:05;8.20;99.90
6822;DHT22;3449;48.728;8.968;2024-03-29T09:31:34;8.30;99.90
6822;DHT22;3449;48.728;8.968;2024-03-29T09:34:01;8.40;99.90
6822;DHT22;3449;48.728;8.968;2024-03-29T09:36:28;8.40;99.90
6822;DHT22;3449;48.728;8.968;2024-03-29T09:38:55;8.40;99.90
6822;DHT22;3449;48.728;8.968;2024-03-29T09:41:25;8.50;99.90
6822;DHT22;3449;48.728;8.968;2024-03-29T09:43:53;8.70;99.90
6822;DHT22;3449;48.728;8.968;2024-03-29T09:46:21;8.70;99.90
6822;DHT22;3449;48.728;8.968;2024-03-29T09:48:50;8.80;99.90
6822;DHT22;3449;48.728;8.968;2024-03-29T09:51:19;8.90;99.90
6822;DHT22;3449;48.728;8.968;2024-03-29T09:53:48;8.90;99.90
6822;DHT22;3449;48.728;8.968;2024-03-29T09:56:16;9.00;99.90
6822;DHT22;3449;48.728;8.968;2024-03-29T09:58:43;9.10;99.90
6822;DHT22;3449;48.728;8.968;2024-03-29T10:01:10;9.10;99.90
6822;DHT22;3449;48.728;8.968;2024-03-29T10:03:39;9.20;99.90
6822;DHT22;3449;48.728;8.968;2024-03-29T10:06:08;9.20;99.90
6822;DHT22;3449;48.728;8.968;2024-03-29T10:08:38;9.40;99.90
6822;DHT22;3449;48.728;8.968;2024-03-29T10:11:05;9.50;99.90
6822;DHT22;3449;48.728;8.968;2024-03-29T10:13:32;9.70;99.90
6822;DHT22;3449;48.728;8.968;2024-03-29T10:16:00;10.10;99.90
6822;DHT22;3449;48.728;8.968;2024-03-29T10:18:28;10.50;99.90
6822;DHT22;3449;48.728;8.968;2024-03-29T10:21:00;10.70;99.90
6822;DHT22;3449;48.728;8.968;2024-03-29T10:23:31;10.90;99.90
6822;DHT22;3449;48.728;8.968;2024-03-29T10:25:58;11.00;99.90
6822;DHT22;3449;48.728;8.968;2024-03-29T10:28:30;11.00;99.90
6822;DHT22;3449;48.728;8.968;2024-03-29T10:30:57;11.30;99.90
6822;DHT22;3449;48.728;8.968;2024-03-29T10:33:27;11.50;99.90
6822;DHT22;3449;48.728;8.968;2024-03-29T10:35:53;11.60;99.90
6822;DHT22;3449;48.728;8.968;2024-03-29T10:38:21;11.70;99.90
6822;DHT22;3449;48.728;8.968;2024-03-29T10:40:49;11.90;99.90
6822;DHT22;3449;48.728;8.968;2024-03-29T10:43:19;12.00;99.90
6822;DHT22;3449;48.728;8.968;2024-03-29T10:45:46;11.80;99.90
6822;DHT22;3449;48.728;8.968;2024-03-29T10:48:15;11.90;99.90
6822;DHT22;3449;48.728;8.968;2024-03-29T10:50:44;12.00;99.90
6822;DHT22;3449;48.728;8.968;2024-03-29T10:53:12;12.20;99.90
6822;DHT22;3449;48.728;8.968;2024-03-29T10:55:42;12.20;99.90
6822;DHT22;3449;48.728;8.968;2024-03-29T10:58:11;12.30;99.90
6822;DHT22;3449;48.728;8.968;2024-03-29T11:00:45;12.50;99.90
6822;DHT22;3449;48.728;8.968;2024-03-29T11:03:16;12.50;99.90
6822;DHT22;3449;48.728;8.968;2024-03-29T11:05:47;12.50;99.90
6822;DHT22;3449;48.728;8.968;2024-03-29T11:08:21;12.40;99.90
6822;DHT22;3449;48.728;8.968;2024-03-29T11:10:49;12.40;99.90
6822;DHT22;3449;48.728;8.968;2024-03-29T11:13:23;12.60;99.90
6822;DHT22;3449;48.728;8.968;2024-03-29T11:15:53;12.60;99.90
6822;DHT22;3449;48.728;8.968;2024-03-29T11:18:20;12.50;99.90
6822;DHT22;3449;48.728;8.968;2024-03-29T11:20:51;12.60;99.90
6822;DHT22;3449;48.728;8.968;2024-03-29T11:23:19;12.80;99.90
6822;DHT22;3449;48.728;8.968;2024-03-29T11:25:48;12.80;99.90
6822;DHT22;3449;48.728;8.968;2024-03-29T11:28:15;13.00;99.90
6822;DHT22;3449;48.728;8.968;2024-03-29T11:30:49;13.30;99.90
6822;DHT22;3449;48.728;8.968;2024-03-29T11:33:30;13.40;99.90
6822;DHT22;3449;48.728;8.968;2024-03-29T11:35:58;13.70;99.90
6822;DHT22;3449;48.728;8.968;2024-03-29T11:38:33;14.10;99.90
6822;DHT22;3449;48.728;8.968;2024-03-29T11:41:04;14.30;99.90
6822;DHT22;3449;48.728;8.968;2024-03-29T11:43:32;14.40;99.90
6822;DHT22;3449;48.728;8.968;2024-03-29T11:46:01;14.30;99.90
6822;DHT22;3449;48.728;8.968;2024-03-29T11:48:30;14.10;99.90
6822;DHT22;3449;48.728;8.968;2024-03-29T11:50:58;13.90;99.90
6822;DHT22;3449;48.728;8.968;2024-03-29T11:53:25;13.90;99.90
6822;DHT22;3449;48.728;8.968;2024-03-29T11:55:53;13.80;99.90
6822;DHT22;3449;48.728;8.968;2024-03-29T11:58:21;13.70;99.90
6822;DHT22;3449;48.728;8.968;2024-03-29T12:00:48;13.70;99.90
6822;DHT22;3449;48.728;8.968;2024-03-29T12:03:18;13.70;99.90
6822;DHT22;3449;48.728;8.968;2024-03-29T12:05:46;13.60;99.90
6822;DHT22;3449;48.728;8.968;2024-03-29T12:08:14;13.50;99.90
6822;DHT22;3449;48.728;8.968;2024-03-29T12:10:41;13.50;99.90
6822;DHT22;3449;48.728;8.968;2024-03-29T12:13:08;13.50;99.90
6822;DHT22;3449;48.728;8.968;2024-03-29T12:15:35;13.60;99.90
6822;DHT22;3449;48.728;8.968;2024-03-29T12:18:03;13.70;99.90
6822;DHT22;3449;48.728;8.968;2024-03-29T12:20:32;14.00;99.90
6822;DHT22;3449;48.728;8.968;2024-03-29T12:23:00;14.10;99.90
6822;DHT22;3449;48.728;8.968;2024-03-29T12:25:28;14.10;99.90
6822;DHT22;3449;48.728;8.968;2024-03-29T12:27:55;14.10;99.90
6822;DHT22;3449;48.728;8.968;2024-03-29T12:30:22;14.10;99.90
6822;DHT22;3449;48.728;8.968;2024-03-29T12:33:00;14.20;99.90
6822;DHT22;3449;48.728;8.968;2024-03-29T12:35:27;14.30;99.90
6822;DHT22;3449;48.728;8.968;2024-03-29T12:37:58;14.30;99.90
6822;DHT22;3449;48.728;8.968;2024-03-29T12:40:26;14.40;99.90
6822;DHT22;3449;48.728;8.968;2024-03-29T12:42:55;14.60;99.90
6822;DHT22;3449;48.728;8.968;2024-03-29T12:45:22;14.80;99.90
6822;DHT22;3449;48.728;8.968;2024-03-29T12:47:49;14.90;99.90
6822;DHT22;3449;48.728;8.968;2024-03-29T12:50:25;15.00;99.90
6822;DHT22;3449;48.728;8.968;2024-03-29T12:52:54;15.00;99.90
6822;DHT22;3449;48.728;8.968;2024-03-29T12:55:23;15.00;99.90
6822;DHT22;3449;48.728;8.968;2024-03-29T12:57:50;15.00;99.90
6822;DHT22;3449;48.728;8.968;2024-03-29T13:00:19;15.20;99.90
6822;DHT22;3449;48.728;8.968;2024-03-29T13:02:45;15.30;99.90
6822;DHT22;3449;48.728;8.968;2024-03-29T13:05:12;15.40;99.90
6822;DHT22;3449;48.728;8.968;2024-03-29T13:07:39;15.50;99.90
6822;DHT22;3449;48.728;8.968;2024-03-29T13:10:07;15.70;99.90
6822;DHT22;3449;48.728;8.968;2024-03-29T13:12:40;16.20;99.90
6822;DHT22;3449;48.728;8.968;2024-03-29T13:15:16;16.90;99.90
6822;DHT22;3449;48.728;8.968;2024-03-29T13:17:44;17.60;99.90
6822;DHT22;3449;48.728;8.968;2024-03-29T13:20:12;18.20;93.60
6822;DHT22;3449;48.728;8.968;2024-03-29T13:22:39;18.00;92.60
6822;DHT22;3449;48.728;8.968;2024-03-29T13:25:07;18.50;94.70
6822;DHT22;3449;48.728;8.968;2024-03-29T13:27:36;18.90;91.40
6822;DHT22;3449;48.728;8.968;2024-03-29T13:30:05;19.10;86.90
6822;DHT22;3449;48.728;8.968;2024-03-29T13:32:34;19.30;91.10
6822;DHT22;3449;48.728;8.968;2024-03-29T13:35:01;19.50;82.80
6822;DHT22;3449;48.728;8.968;2024-03-29T13:37:31;19.50;81.30
6822;DHT22;3449;48.728;8.968;2024-03-29T13:39:58;19.90;75.20
6822;DHT22;3449;48.728;8.968;2024-03-29T13:42:25;20.10;78.10
6822;DHT22;3449;48.728;8.968;2024-03-29T13:44:52;20.30;77.90
6822;DHT22;3449;48.728;8.968;2024-03-29T13:47:20;20.50;76.40
6822;DHT22;3449;48.728;8.968;2024-03-29T13:49:47;20.70;71.10
6822;DHT22;3449;48.728;8.968;2024-03-29T13:52:18;20.20;71.60
6822;DHT22;3449;48.728;8.968;2024-03-29T13:54:45;20.30;68.50
6822;DHT22;3449;48.728;8.968;2024-03-29T13:57:12;20.60;62.80
6822;DHT22;3449;48.728;8.968;2024-03-29T13:59:39;20.60;65.30
6822;DHT22;3449;48.728;8.968;2024-03-29T14:02:08;20.70;65.80
6822;DHT22;3449;48.728;8.968;2024-03-29T14:04:36;20.90;60.90
6822;DHT22;3449;48.728;8.968;2024-03-29T14:07:03;20.80;63.00
6822;DHT22;3449;48.728;8.968;2024-03-29T14:09:34;21.10;60.70
6822;DHT22;3449;48.728;8.968;2024-03-29T14:12:01;21.00;59.60
6822;DHT22;3449;48.728;8.968;2024-03-29T14:14:28;21.00;59.40
6822;DHT22;3449;48.728;8.968;2024-03-29T14:16:55;21.00;57.60
6822;DHT22;3449;48.728;8.968;2024-03-29T14:19:22;21.00;56.90
6822;DHT22;3449;48.728;8.968;2024-03-29T14:21:51;21.00;53.10
6822;DHT22;3449;48.728;8.968;2024-03-29T14:24:17;20.70;54.00
6822;DHT22;3449;48.728;8.968;2024-03-29T14:26:44;20.40;53.60
6822;DHT22;3449;48.728;8.968;2024-03-29T14:29:11;20.20;59.30
6822;DHT22;3449;48.728;8.968;2024-03-29T14:31:40;20.10;58.50
6822;DHT22;3449;48.728;8.968;2024-03-29T14:34:10;20.10;62.20
6822;DHT22;3449;48.728;8.968;2024-03-29T14:36:36;20.20;61.90
6822;DHT22;3449;48.728;8.968;2024-03-29T14:39:05;20.30;62.50
6822;DHT22;3449;48.728;8.968;2024-03-29T14:41:31;20.20;68.40
6822;DHT22;3449;48.728;8.968;2024-03-29T14:43:59;20.40;64.90
6822;DHT22;3449;48.728;8.968;2024-03-29T14:46:26;20.30;60.40
6822;DHT22;3449;48.728;8.968;2024-03-29T14:48:53;20.20;61.80
6822;DHT22;3449;48.728;8.968;2024-03-29T14:51:20;19.80;62.10
6822;DHT22;3449;48.728;8.968;2024-03-29T14:53:47;19.60;63.30
6822;DHT22;3449;48.728;8.968;2024-03-29T14:56:16;19.60;63.20
6822;DHT22;3449;48.728;8.968;2024-03-29T14:58:43;19.60;63.00
6822;DHT22;3449;48.728;8.968;2024-03-29T15:01:10;19.60;67.60
6822;DHT22;3449;48.728;8.968;2024-03-29T15:03:37;19.70;65.20
6822;DHT22;3449;48.728;8.968;2024-03-29T15:06:05;19.70;63.30
6822;DHT22;3449;48.728;8.968;2024-03-29T15:08:31;19.90;62.10
6822;DHT22;3449;48.728;8.968;2024-03-29T15:10:59;20.00;62.40
6822;DHT22;3449;48.728;8.968;2024-03-29T15:13:28;20.10;65.20
6822;DHT22;3449;48.728;8.968;2024-03-29T15:15:56;19.80;58.30
6822;DHT22;3449;48.728;8.968;2024-03-29T15:18:23;19.60;62.00
6822;DHT22;3449;48.728;8.968;2024-03-29T15:20:54;19.70;61.90
6822;DHT22;3449;48.728;8.968;2024-03-29T15:23:21;19.80;58.00
6822;DHT22;3449;48.728;8.968;2024-03-29T15:25:51;19.60;58.90
6822;DHT22;3449;48.728;8.968;2024-03-29T15:28:18;19.40;62.60
6822;DHT22;3449;48.728;8.968;2024-03-29T15:31:09;19.20;60.40
6822;DHT22;3449;48.728;8.968;2024-03-29T15:33:36;18.70;64.70
6822;DHT22;3449;48.728;8.968;2024-03-29T15:36:04;18.40;65.30
6822;DHT22;3449;48.728;8.968;2024-03-29T15:38:31;18.30;67.70
6822;DHT22;3449;48.728;8.968;2024-03-29T15:40:58;18.60;69.60
6822;DHT22;3449;48.728;8.968;2024-03-29T15:43:26;18.50;68.20
6822;DHT22;3449;48.728;8.968;2024-03-29T15:45:53;18.50;69.50
6822;DHT22;3449;48.728;8.968;2024-03-29T15:48:22;18.60;71.40
6822;DHT22;3449;48.728;8.968;2024-03-29T15:50:49;18.80;73.00
6822;DHT22;3449;48.728;8.968;2024-03-29T15:53:16;18.90;74.80
6822;DHT22;3449;48.728;8.968;2024-03-29T15:55:43;18.90;74.30
6822;DHT22;3449;48.728;8.968;2024-03-29T15:58:10;18.60;77.20
6822;DHT22;3449;48.728;8.968;2024-03-29T16:00:38;18.40;79.40
6822;DHT22;3449;48.728;8.968;2024-03-29T16:03:08;18.10;83.70
6822;DHT22;3449;48.728;8.968;2024-03-29T16:05:40;18.00;87.80
6822;DHT22;3449;48.728;8.968;2024-03-29T16:08:08;17.80;89.60
6822;DHT22;3449;48.728;8.968;2024-03-29T16:10:50;17.70;89.90
6822;DHT22;3449;48.728;8.968;2024-03-29T16:13:17;17.60;91.80
6822;DHT22;3449;48.728;8.968;2024-03-29T16:15:44;17.20;91.90